sensor_id;sensor_type;location;lat;lon;timestamp;P1;durP1;ratioP1;P2;durP2;ratioP2
48100;SDS011;33878;47.442;18.916;2022-07-05T00:01:30;4.18;;;2.42;;
48100;SDS011;33878;47.442;18.916;2022-07-05T00:04:16;4.03;;;2.53;;
48100;SDS011;33878;47.442;18.916;2022-07-05T00:07:03;4.28;;;1.83;;
48100;SDS011;33878;47.442;18.916;2022-07-05T00:10:05;6.45;;;2.30;;
48100;SDS011;33878;47.442;18.916;2022-07-05T00:12:51;2.92;;;1.45;;
48100;SDS011;33878;47.442;18.916;2022-07-05T00:15:37;3.20;;;1.80;;
48100;SDS011;33878;47.442;18.916;2022-07-05T00:18:23;3.75;;;1.92;;
48100;SDS011;33878;47.442;18.916;2022-07-05T00:21:10;3.65;;;2.10;;
48100;SDS011;33878;47.442;18.916;2022-07-05T00:23:56;4.20;;;1.83;;
48100;SDS011;33878;47.442;18.916;2022-07-05T00:26:42;2.70;;;1.60;;
48100;SDS011;33878;47.442;18.916;2022-07-05T00:29:29;4.45;;;1.85;;
48100;SDS011;33878;47.442;18.916;2022-07-05T00:32:15;3.10;;;1.75;;
48100;SDS011;33878;47.442;18.916;2022-07-05T00:35:01;3.47;;;1.90;;
48100;SDS011;33878;47.442;18.916;2022-07-05T00:37:47;4.72;;;1.70;;
48100;SDS011;33878;47.442;18.916;2022-07-05T00:40:34;2.72;;;1.77;;
48100;SDS011;33878;47.442;18.916;2022-07-05T00:43:20;2.78;;;1.60;;
48100;SDS011;33878;47.442;18.916;2022-07-05T00:46:06;4.75;;;1.75;;
48100;SDS011;33878;47.442;18.916;2022-07-05T00:48:53;3.30;;;1.70;;
48100;SDS011;33878;47.442;18.916;2022-07-05T00:51:40;3.60;;;1.50;;
48100;SDS011;33878;47.442;18.916;2022-07-05T00:54:46;2.58;;;1.67;;
48100;SDS011;33878;47.442;18.916;2022-07-05T00:57:33;3.05;;;1.60;;
48100;SDS011;33878;47.442;18.916;2022-07-05T01:00:21;2.47;;;1.83;;
48100;SDS011;33878;47.442;18.916;2022-07-05T01:03:07;2.75;;;1.75;;
48100;SDS011;33878;47.442;18.916;2022-07-05T01:05:54;2.85;;;1.45;;
48100;SDS011;33878;47.442;18.916;2022-07-05T01:08:41;3.22;;;1.70;;
48100;SDS011;33878;47.442;18.916;2022-07-05T01:11:28;3.08;;;1.62;;
48100;SDS011;33878;47.442;18.916;2022-07-05T01:14:19;3.65;;;1.80;;
48100;SDS011;33878;47.442;18.916;2022-07-05T01:17:06;2.47;;;1.50;;
48100;SDS011;33878;47.442;18.916;2022-07-05T01:19:52;3.83;;;1.75;;
48100;SDS011;33878;47.442;18.916;2022-07-05T01:22:49;4.40;;;1.73;;
48100;SDS011;33878;47.442;18.916;2022-07-05T01:25:39;2.25;;;1.50;;
48100;SDS011;33878;47.442;18.916;2022-07-05T01:28:27;2.10;;;1.48;;
48100;SDS011;33878;47.442;18.916;2022-07-05T01:31:14;2.45;;;1.50;;
48100;SDS011;33878;47.442;18.916;2022-07-05T01:34:01;2.25;;;1.40;;
48100;SDS011;33878;47.442;18.916;2022-07-05T01:36:47;2.62;;;1.70;;
48100;SDS011;33878;47.442;18.916;2022-07-05T01:39:34;2.70;;;1.30;;
48100;SDS011;33878;47.442;18.916;2022-07-05T01:42:21;2.33;;;1.23;;
48100;SDS011;33878;47.442;18.916;2022-07-05T01:45:07;3.25;;;1.48;;
48100;SDS011;33878;47.442;18.916;2022-07-05T01:47:53;2.35;;;1.50;;
48100;SDS011;33878;47.442;18.916;2022-07-05T01:50:47;2.45;;;1.58;;
48100;SDS011;33878;47.442;18.916;2022-07-05T01:53:34;2.80;;;1.40;;
48100;SDS011;33878;47.442;18.916;2022-07-05T01:56:22;2.58;;;1.50;;
48100;SDS011;33878;47.442;18.916;2022-07-05T01:59:08;3.50;;;1.70;;
48100;SDS011;33878;47.442;18.916;2022-07-05T02:01:55;2.55;;;1.40;;
48100;SDS011;33878;47.442;18.916;2022-07-05T02:04:41;3.28;;;1.52;;
48100;SDS011;33878;47.442;18.916;2022-07-05T02:07:28;2.80;;;1.60;;
48100;SDS011;33878;47.442;18.916;2022-07-05T02:10:15;4.80;;;1.90;;
48100;SDS011;33878;47.442;18.916;2022-07-05T02:13:02;2.28;;;1.60;;
48100;SDS011;33878;47.442;18.916;2022-07-05T02:15:50;3.65;;;1.77;;
48100;SDS011;33878;47.442;18.916;2022-07-05T02:18:37;3.60;;;1.98;;
48100;SDS011;33878;47.442;18.916;2022-07-05T02:21:23;3.05;;;1.50;;
48100;SDS011;33878;47.442;18.916;2022-07-05T02:24:10;2.70;;;1.65;;
48100;SDS011;33878;47.442;18.916;2022-07-05T02:26:58;2.30;;;1.80;;
48100;SDS011;33878;47.442;18.916;2022-07-05T02:29:45;3.92;;;1.70;;
48100;SDS011;33878;47.442;18.916;2022-07-05T02:32:32;2.03;;;1.50;;
48100;SDS011;33878;47.442;18.916;2022-07-05T02:35:19;4.72;;;1.85;;
48100;SDS011;33878;47.442;18.916;2022-07-05T02:38:06;3.80;;;1.90;;
48100;SDS011;33878;47.442;18.916;2022-07-05T02:40:52;2.60;;;1.70;;
48100;SDS011;33878;47.442;18.916;2022-07-05T02:43:39;5.37;;;1.95;;
48100;SDS011;33878;47.442;18.916;2022-07-05T02:46:26;2.17;;;1.75;;
48100;SDS011;33878;47.442;18.916;2022-07-05T02:49:13;3.60;;;1.98;;
48100;SDS011;33878;47.442;18.916;2022-07-05T02:52:01;3.20;;;1.60;;
48100;SDS011;33878;47.442;18.916;2022-07-05T02:54:47;4.00;;;1.60;;
48100;SDS011;33878;47.442;18.916;2022-07-05T02:57:36;3.42;;;1.40;;
48100;SDS011;33878;47.442;18.916;2022-07-05T03:00:23;4.47;;;1.77;;
48100;SDS011;33878;47.442;18.916;2022-07-05T03:03:10;4.05;;;1.77;;
48100;SDS011;33878;47.442;18.916;2022-07-05T03:05:56;5.07;;;1.80;;
48100;SDS011;33878;47.442;18.916;2022-07-05T03:08:42;3.17;;;1.37;;
48100;SDS011;33878;47.442;18.916;2022-07-05T03:11:29;3.47;;;1.90;;
48100;SDS011;33878;47.442;18.916;2022-07-05T03:14:16;3.65;;;1.85;;
48100;SDS011;33878;47.442;18.916;2022-07-05T03:17:02;2.37;;;1.60;;
48100;SDS011;33878;47.442;18.916;2022-07-05T03:19:49;4.43;;;1.90;;
48100;SDS011;33878;47.442;18.916;2022-07-05T03:22:36;3.75;;;1.77;;
48100;SDS011;33878;47.442;18.916;2022-07-05T03:25:22;2.58;;;1.70;;
48100;SDS011;33878;47.442;18.916;2022-07-05T03:28:10;5.07;;;1.87;;
48100;SDS011;33878;47.442;18.916;2022-07-05T03:30:57;4.43;;;1.80;;
48100;SDS011;33878;47.442;18.916;2022-07-05T03:33:44;3.67;;;1.90;;
48100;SDS011;33878;47.442;18.916;2022-07-05T03:36:31;3.37;;;1.95;;
48100;SDS011;33878;47.442;18.916;2022-07-05T03:39:19;3.95;;;1.75;;
48100;SDS011;33878;47.442;18.916;2022-07-05T03:42:06;2.62;;;1.73;;
48100;SDS011;33878;47.442;18.916;2022-07-05T03:44:53;3.12;;;1.98;;
48100;SDS011;33878;47.442;18.916;2022-07-05T03:47:40;4.03;;;2.17;;
48100;SDS011;33878;47.442;18.916;2022-07-05T03:50:26;6.25;;;2.00;;
48100;SDS011;33878;47.442;18.916;2022-07-05T03:53:14;4.07;;;2.25;;
48100;SDS011;33878;47.442;18.916;2022-07-05T03:56:01;7.47;;;1.67;;
48100;SDS011;33878;47.442;18.916;2022-07-05T03:58:48;4.37;;;1.90;;
48100;SDS011;33878;47.442;18.916;2022-07-05T04:01:35;2.60;;;1.70;;
48100;SDS011;33878;47.442;18.916;2022-07-05T04:04:22;2.20;;;1.77;;
48100;SDS011;33878;47.442;18.916;2022-07-05T04:07:08;5.37;;;1.90;;
48100;SDS011;33878;47.442;18.916;2022-07-05T04:09:55;5.37;;;1.92;;
48100;SDS011;33878;47.442;18.916;2022-07-05T04:12:41;3.83;;;1.80;;
48100;SDS011;33878;47.442;18.916;2022-07-05T04:15:29;4.82;;;1.80;;
48100;SDS011;33878;47.442;18.916;2022-07-05T04:18:16;2.30;;;1.60;;
48100;SDS011;33878;47.442;18.916;2022-07-05T04:21:02;4.30;;;1.75;;
48100;SDS011;33878;47.442;18.916;2022-07-05T04:23:49;2.97;;;1.60;;
48100;SDS011;33878;47.442;18.916;2022-07-05T04:26:36;4.22;;;1.48;;
48100;SDS011;33878;47.442;18.916;2022-07-05T04:29:23;3.42;;;1.70;;
48100;SDS011;33878;47.442;18.916;2022-07-05T04:32:09;3.50;;;1.80;;
48100;SDS011;33878;47.442;18.916;2022-07-05T04:34:55;2.80;;;1.60;;
48100;SDS011;33878;47.442;18.916;2022-07-05T04:37:42;2.62;;;1.80;;
48100;SDS011;33878;47.442;18.916;2022-07-05T04:40:28;3.92;;;1.70;;
48100;SDS011;33878;47.442;18.916;2022-07-05T04:43:15;3.97;;;2.00;;
48100;SDS011;33878;47.442;18.916;2022-07-05T04:46:02;3.80;;;2.00;;
48100;SDS011;33878;47.442;18.916;2022-07-05T04:48:48;4.22;;;1.80;;
48100;SDS011;33878;47.442;18.916;2022-07-05T04:51:35;3.92;;;1.77;;
48100;SDS011;33878;47.442;18.916;2022-07-05T04:54:22;2.33;;;1.62;;
48100;SDS011;33878;47.442;18.916;2022-07-05T04:57:08;5.03;;;1.60;;
48100;SDS011;33878;47.442;18.916;2022-07-05T04:59:55;3.15;;;1.77;;
48100;SDS011;33878;47.442;18.916;2022-07-05T05:02:41;5.18;;;1.48;;
48100;SDS011;33878;47.442;18.916;2022-07-05T05:05:28;3.58;;;1.77;;
48100;SDS011;33878;47.442;18.916;2022-07-05T05:08:14;2.85;;;1.48;;
48100;SDS011;33878;47.442;18.916;2022-07-05T05:11:00;3.87;;;1.60;;
48100;SDS011;33878;47.442;18.916;2022-07-05T05:13:46;3.12;;;1.50;;
48100;SDS011;33878;47.442;18.916;2022-07-05T05:16:33;4.22;;;1.50;;
48100;SDS011;33878;47.442;18.916;2022-07-05T05:19:19;3.97;;;2.05;;
48100;SDS011;33878;47.442;18.916;2022-07-05T05:22:07;3.42;;;1.75;;
48100;SDS011;33878;47.442;18.916;2022-07-05T05:24:53;3.47;;;1.48;;
48100;SDS011;33878;47.442;18.916;2022-07-05T05:27:47;2.30;;;1.50;;
48100;SDS011;33878;47.442;18.916;2022-07-05T05:30:34;4.03;;;1.52;;
48100;SDS011;33878;47.442;18.916;2022-07-05T05:33:20;3.92;;;1.60;;
48100;SDS011;33878;47.442;18.916;2022-07-05T05:36:12;6.62;;;1.87;;
48100;SDS011;33878;47.442;18.916;2022-07-05T05:38:58;6.97;;;2.17;;
48100;SDS011;33878;47.442;18.916;2022-07-05T05:41:45;4.53;;;1.60;;
48100;SDS011;33878;47.442;18.916;2022-07-05T05:44:31;4.03;;;1.55;;
48100;SDS011;33878;47.442;18.916;2022-07-05T05:47:17;3.10;;;1.60;;
48100;SDS011;33878;47.442;18.916;2022-07-05T05:50:03;2.42;;;1.55;;
48100;SDS011;33878;47.442;18.916;2022-07-05T05:52:50;3.33;;;1.60;;
48100;SDS011;33878;47.442;18.916;2022-07-05T05:55:37;2.33;;;1.70;;
48100;SDS011;33878;47.442;18.916;2022-07-05T05:58:23;2.35;;;1.50;;
48100;SDS011;33878;47.442;18.916;2022-07-05T06:01:10;4.43;;;1.48;;
48100;SDS011;33878;47.442;18.916;2022-07-05T06:03:57;2.58;;;1.42;;
48100;SDS011;33878;47.442;18.916;2022-07-05T06:06:42;3.55;;;1.67;;
48100;SDS011;33878;47.442;18.916;2022-07-05T06:09:29;4.80;;;1.60;;
48100;SDS011;33878;47.442;18.916;2022-07-05T06:12:15;3.72;;;1.58;;
48100;SDS011;33878;47.442;18.916;2022-07-05T06:15:01;2.00;;;1.60;;
48100;SDS011;33878;47.442;18.916;2022-07-05T06:17:48;3.75;;;1.90;;
48100;SDS011;33878;47.442;18.916;2022-07-05T06:20:36;5.57;;;1.80;;
48100;SDS011;33878;47.442;18.916;2022-07-05T06:23:24;4.43;;;1.55;;
48100;SDS011;33878;47.442;18.916;2022-07-05T06:26:10;3.70;;;1.40;;
48100;SDS011;33878;47.442;18.916;2022-07-05T06:28:56;3.58;;;1.62;;
48100;SDS011;33878;47.442;18.916;2022-07-05T06:31:42;4.37;;;1.70;;
48100;SDS011;33878;47.442;18.916;2022-07-05T06:34:29;4.53;;;1.77;;
48100;SDS011;33878;47.442;18.916;2022-07-05T06:37:22;3.35;;;1.27;;
48100;SDS011;33878;47.442;18.916;2022-07-05T06:40:09;2.42;;;1.10;;
48100;SDS011;33878;47.442;18.916;2022-07-05T06:43:04;2.53;;;1.40;;
48100;SDS011;33878;47.442;18.916;2022-07-05T06:45:54;3.05;;;1.60;;
48100;SDS011;33878;47.442;18.916;2022-07-05T06:48:42;3.53;;;1.60;;
48100;SDS011;33878;47.442;18.916;2022-07-05T06:51:28;2.85;;;1.30;;
48100;SDS011;33878;47.442;18.916;2022-07-05T06:54:14;2.67;;;1.33;;
48100;SDS011;33878;47.442;18.916;2022-07-05T06:57:21;3.28;;;1.50;;
48100;SDS011;33878;47.442;18.916;2022-07-05T07:00:16;2.37;;;1.35;;
48100;SDS011;33878;47.442;18.916;2022-07-05T07:03:22;2.40;;;1.70;;
48100;SDS011;33878;47.442;18.916;2022-07-05T07:06:28;3.33;;;1.30;;
48100;SDS011;33878;47.442;18.916;2022-07-05T07:09:15;2.65;;;1.37;;
48100;SDS011;33878;47.442;18.916;2022-07-05T07:12:04;3.97;;;1.40;;
48100;SDS011;33878;47.442;18.916;2022-07-05T07:14:51;2.72;;;1.45;;
48100;SDS011;33878;47.442;18.916;2022-07-05T07:17:37;2.60;;;1.35;;
48100;SDS011;33878;47.442;18.916;2022-07-05T07:20:23;2.22;;;1.20;;
48100;SDS011;33878;47.442;18.916;2022-07-05T07:23:10;6.90;;;1.30;;
48100;SDS011;33878;47.442;18.916;2022-07-05T07:25:57;2.87;;;1.25;;
48100;SDS011;33878;47.442;18.916;2022-07-05T07:28:44;3.67;;;1.20;;
48100;SDS011;33878;47.442;18.916;2022-07-05T07:31:30;2.33;;;1.10;;
48100;SDS011;33878;47.442;18.916;2022-07-05T07:34:16;2.92;;;1.50;;
48100;SDS011;33878;47.442;18.916;2022-07-05T07:37:03;4.45;;;1.27;;
48100;SDS011;33878;47.442;18.916;2022-07-05T07:39:50;1.50;;;1.25;;
48100;SDS011;33878;47.442;18.916;2022-07-05T07:42:36;2.78;;;1.17;;
48100;SDS011;33878;47.442;18.916;2022-07-05T07:45:23;2.45;;;1.20;;
48100;SDS011;33878;47.442;18.916;2022-07-05T07:48:09;3.10;;;1.42;;
48100;SDS011;33878;47.442;18.916;2022-07-05T07:50:56;2.35;;;1.58;;
48100;SDS011;33878;47.442;18.916;2022-07-05T07:53:42;2.00;;;1.50;;
48100;SDS011;33878;47.442;18.916;2022-07-05T07:56:29;1.70;;;1.12;;
48100;SDS011;33878;47.442;18.916;2022-07-05T07:59:15;3.70;;;1.58;;
48100;SDS011;33878;47.442;18.916;2022-07-05T08:02:01;1.80;;;1.30;;
48100;SDS011;33878;47.442;18.916;2022-07-05T08:04:49;5.05;;;1.35;;
48100;SDS011;33878;47.442;18.916;2022-07-05T08:07:36;6.85;;;1.45;;
48100;SDS011;33878;47.442;18.916;2022-07-05T08:10:22;3.28;;;2.15;;
48100;SDS011;33878;47.442;18.916;2022-07-05T08:13:08;4.80;;;1.55;;
48100;SDS011;33878;47.442;18.916;2022-07-05T08:15:55;5.12;;;1.40;;
48100;SDS011;33878;47.442;18.916;2022-07-05T08:18:41;3.67;;;1.70;;
48100;SDS011;33878;47.442;18.916;2022-07-05T08:21:46;2.50;;;1.80;;
48100;SDS011;33878;47.442;18.916;2022-07-05T08:24:34;2.80;;;1.52;;
48100;SDS011;33878;47.442;18.916;2022-07-05T08:27:21;2.78;;;1.50;;
48100;SDS011;33878;47.442;18.916;2022-07-05T08:30:08;3.37;;;1.60;;
48100;SDS011;33878;47.442;18.916;2022-07-05T08:32:55;3.80;;;1.58;;
48100;SDS011;33878;47.442;18.916;2022-07-05T08:35:41;5.00;;;1.50;;
48100;SDS011;33878;47.442;18.916;2022-07-05T08:38:28;2.53;;;1.48;;
48100;SDS011;33878;47.442;18.916;2022-07-05T08:41:16;3.25;;;1.60;;
48100;SDS011;33878;47.442;18.916;2022-07-05T08:44:04;4.37;;;1.80;;
48100;SDS011;33878;47.442;18.916;2022-07-05T08:46:51;1.67;;;1.40;;
48100;SDS011;33878;47.442;18.916;2022-07-05T08:49:39;2.92;;;1.30;;
48100;SDS011;33878;47.442;18.916;2022-07-05T08:52:28;2.22;;;1.70;;
48100;SDS011;33878;47.442;18.916;2022-07-05T08:55:15;4.30;;;1.40;;
48100;SDS011;33878;47.442;18.916;2022-07-05T08:58:01;1.87;;;1.65;;
48100;SDS011;33878;47.442;18.916;2022-07-05T09:00:48;4.43;;;1.27;;
48100;SDS011;33878;47.442;18.916;2022-07-05T09:03:39;3.72;;;1.55;;
48100;SDS011;33878;47.442;18.916;2022-07-05T09:06:29;8.63;;;1.65;;
48100;SDS011;33878;47.442;18.916;2022-07-05T09:09:18;3.37;;;2.40;;
48100;SDS011;33878;47.442;18.916;2022-07-05T09:12:05;6.28;;;4.05;;
48100;SDS011;33878;47.442;18.916;2022-07-05T09:15:10;8.70;;;5.93;;
48100;SDS011;33878;47.442;18.916;2022-07-05T09:17:56;6.75;;;2.30;;
48100;SDS011;33878;47.442;18.916;2022-07-05T09:20:43;6.68;;;3.65;;
48100;SDS011;33878;47.442;18.916;2022-07-05T09:23:37;8.30;;;2.90;;
48100;SDS011;33878;47.442;18.916;2022-07-05T09:26:35;10.93;;;4.55;;
48100;SDS011;33878;47.442;18.916;2022-07-05T09:29:21;9.70;;;3.78;;
48100;SDS011;33878;47.442;18.916;2022-07-05T09:32:27;5.50;;;2.20;;
48100;SDS011;33878;47.442;18.916;2022-07-05T09:35:18;5.32;;;2.20;;
48100;SDS011;33878;47.442;18.916;2022-07-05T09:38:05;6.60;;;2.83;;
48100;SDS011;33878;47.442;18.916;2022-07-05T09:40:53;8.68;;;3.10;;
48100;SDS011;33878;47.442;18.916;2022-07-05T09:43:45;7.93;;;2.25;;
48100;SDS011;33878;47.442;18.916;2022-07-05T09:46:32;6.07;;;2.15;;
48100;SDS011;33878;47.442;18.916;2022-07-05T09:49:24;5.82;;;1.98;;
48100;SDS011;33878;47.442;18.916;2022-07-05T09:52:25;7.30;;;2.15;;
48100;SDS011;33878;47.442;18.916;2022-07-05T09:55:16;5.93;;;2.65;;
48100;SDS011;33878;47.442;18.916;2022-07-05T09:58:04;13.27;;;3.30;;
48100;SDS011;33878;47.442;18.916;2022-07-05T10:00:50;11.00;;;3.92;;
48100;SDS011;33878;47.442;18.916;2022-07-05T10:03:52;12.13;;;3.53;;
48100;SDS011;33878;47.442;18.916;2022-07-05T10:06:42;8.63;;;3.37;;
48100;SDS011;33878;47.442;18.916;2022-07-05T10:09:29;11.40;;;5.10;;
48100;SDS011;33878;47.442;18.916;2022-07-05T10:12:16;8.23;;;3.62;;
48100;SDS011;33878;47.442;18.916;2022-07-05T10:15:03;7.15;;;3.65;;
48100;SDS011;33878;47.442;18.916;2022-07-05T10:17:52;7.28;;;3.40;;
48100;SDS011;33878;47.442;18.916;2022-07-05T10:20:44;4.47;;;3.43;;
48100;SDS011;33878;47.442;18.916;2022-07-05T10:23:30;6.05;;;3.90;;
48100;SDS011;33878;47.442;18.916;2022-07-05T10:26:17;7.72;;;3.45;;
48100;SDS011;33878;47.442;18.916;2022-07-05T10:29:04;7.82;;;3.85;;
48100;SDS011;33878;47.442;18.916;2022-07-05T10:31:50;6.70;;;3.92;;
48100;SDS011;33878;47.442;18.916;2022-07-05T10:34:37;6.90;;;3.65;;
48100;SDS011;33878;47.442;18.916;2022-07-05T10:37:41;7.00;;;3.47;;
48100;SDS011;33878;47.442;18.916;2022-07-05T10:40:28;5.53;;;3.58;;
48100;SDS011;33878;47.442;18.916;2022-07-05T10:43:19;5.97;;;3.47;;
48100;SDS011;33878;47.442;18.916;2022-07-05T10:46:07;5.15;;;3.87;;
48100;SDS011;33878;47.442;18.916;2022-07-05T10:49:09;6.25;;;3.85;;
48100;SDS011;33878;47.442;18.916;2022-07-05T10:52:22;8.15;;;4.15;;
48100;SDS011;33878;47.442;18.916;2022-07-05T11:04:10;7.57;;;4.50;;
48100;SDS011;33878;47.442;18.916;2022-07-05T11:07:00;7.10;;;4.65;;
48100;SDS011;33878;47.442;18.916;2022-07-05T11:09:59;5.78;;;4.75;;
48100;SDS011;33878;47.442;18.916;2022-07-05T11:12:46;7.70;;;5.03;;
48100;SDS011;33878;47.442;18.916;2022-07-05T11:15:32;6.95;;;4.10;;
48100;SDS011;33878;47.442;18.916;2022-07-05T11:18:22;6.10;;;4.18;;
48100;SDS011;33878;47.442;18.916;2022-07-05T11:21:19;6.93;;;4.53;;
48100;SDS011;33878;47.442;18.916;2022-07-05T11:24:20;6.35;;;4.55;;
48100;SDS011;33878;47.442;18.916;2022-07-05T11:27:11;5.80;;;4.30;;
48100;SDS011;33878;47.442;18.916;2022-07-05T11:29:58;5.10;;;3.40;;
48100;SDS011;33878;47.442;18.916;2022-07-05T11:32:45;6.93;;;3.53;;
48100;SDS011;33878;47.442;18.916;2022-07-05T11:35:31;4.65;;;3.47;;
48100;SDS011;33878;47.442;18.916;2022-07-05T11:38:19;7.28;;;4.25;;
48100;SDS011;33878;47.442;18.916;2022-07-05T11:41:13;6.07;;;3.50;;
48100;SDS011;33878;47.442;18.916;2022-07-05T11:44:00;5.75;;;3.47;;
48100;SDS011;33878;47.442;18.916;2022-07-05T11:46:47;8.68;;;4.40;;
48100;SDS011;33878;47.442;18.916;2022-07-05T11:49:35;6.03;;;3.83;;
48100;SDS011;33878;47.442;18.916;2022-07-05T11:52:29;6.87;;;3.95;;
48100;SDS011;33878;47.442;18.916;2022-07-05T11:55:16;5.28;;;4.20;;
48100;SDS011;33878;47.442;18.916;2022-07-05T11:58:03;5.12;;;3.58;;
48100;SDS011;33878;47.442;18.916;2022-07-05T12:00:54;5.18;;;3.78;;
48100;SDS011;33878;47.442;18.916;2022-07-05T12:03:56;6.78;;;3.70;;
48100;SDS011;33878;47.442;18.916;2022-07-05T12:06:43;6.32;;;3.42;;
48100;SDS011;33878;47.442;18.916;2022-07-05T12:09:33;5.95;;;4.37;;
48100;SDS011;33878;47.442;18.916;2022-07-05T12:12:38;6.03;;;3.20;;
48100;SDS011;33878;47.442;18.916;2022-07-05T12:15:30;5.95;;;3.53;;
48100;SDS011;33878;47.442;18.916;2022-07-05T12:18:17;7.07;;;4.00;;
48100;SDS011;33878;47.442;18.916;2022-07-05T12:21:03;8.88;;;4.55;;
48100;SDS011;33878;47.442;18.916;2022-07-05T12:23:57;6.57;;;4.30;;
48100;SDS011;33878;47.442;18.916;2022-07-05T12:26:44;5.18;;;3.97;;
48100;SDS011;33878;47.442;18.916;2022-07-05T12:29:32;7.05;;;4.55;;
48100;SDS011;33878;47.442;18.916;2022-07-05T12:32:19;7.57;;;4.35;;
48100;SDS011;33878;47.442;18.916;2022-07-05T12:35:06;7.57;;;4.93;;
48100;SDS011;33878;47.442;18.916;2022-07-05T12:38:13;7.37;;;5.07;;
48100;SDS011;33878;47.442;18.916;2022-07-05T12:41:01;7.70;;;5.37;;
48100;SDS011;33878;47.442;18.916;2022-07-05T12:43:52;7.05;;;4.53;;
48100;SDS011;33878;47.442;18.916;2022-07-05T12:46:40;7.25;;;5.97;;
48100;SDS011;33878;47.442;18.916;2022-07-05T12:49:29;7.72;;;5.10;;
48100;SDS011;33878;47.442;18.916;2022-07-05T12:52:15;7.90;;;5.40;;
48100;SDS011;33878;47.442;18.916;2022-07-05T12:55:11;6.90;;;4.47;;
48100;SDS011;33878;47.442;18.916;2022-07-05T12:58:17;8.77;;;5.45;;
48100;SDS011;33878;47.442;18.916;2022-07-05T13:01:17;8.48;;;6.00;;
48100;SDS011;33878;47.442;18.916;2022-07-05T13:04:08;12.93;;;6.57;;
48100;SDS011;33878;47.442;18.916;2022-07-05T13:09:49;6.30;;;5.15;;
48100;SDS011;33878;47.442;18.916;2022-07-05T13:12:37;9.48;;;5.40;;
48100;SDS011;33878;47.442;18.916;2022-07-05T13:15:23;6.20;;;4.65;;
48100;SDS011;33878;47.442;18.916;2022-07-05T13:18:10;6.62;;;4.10;;
48100;SDS011;33878;47.442;18.916;2022-07-05T13:20:56;6.60;;;4.25;;
48100;SDS011;33878;47.442;18.916;2022-07-05T13:23:43;6.25;;;3.47;;
48100;SDS011;33878;47.442;18.916;2022-07-05T13:26:29;4.30;;;3.30;;
48100;SDS011;33878;47.442;18.916;2022-07-05T13:29:16;5.57;;;3.53;;
48100;SDS011;33878;47.442;18.916;2022-07-05T13:32:03;5.57;;;3.00;;
48100;SDS011;33878;47.442;18.916;2022-07-05T13:34:50;5.25;;;3.47;;
48100;SDS011;33878;47.442;18.916;2022-07-05T13:37:37;5.62;;;3.42;;
48100;SDS011;33878;47.442;18.916;2022-07-05T13:40:23;6.40;;;3.67;;
48100;SDS011;33878;47.442;18.916;2022-07-05T13:43:10;4.62;;;2.55;;
48100;SDS011;33878;47.442;18.916;2022-07-05T13:45:56;4.70;;;3.53;;
48100;SDS011;33878;47.442;18.916;2022-07-05T13:48:42;5.05;;;3.40;;
48100;SDS011;33878;47.442;18.916;2022-07-05T13:51:29;5.87;;;3.72;;
48100;SDS011;33878;47.442;18.916;2022-07-05T13:54:15;4.68;;;3.30;;
48100;SDS011;33878;47.442;18.916;2022-07-05T13:57:02;5.12;;;3.47;;
48100;SDS011;33878;47.442;18.916;2022-07-05T13:59:48;4.53;;;3.10;;
48100;SDS011;33878;47.442;18.916;2022-07-05T14:02:35;4.07;;;3.00;;
48100;SDS011;33878;47.442;18.916;2022-07-05T14:05:21;4.55;;;3.08;;
48100;SDS011;33878;47.442;18.916;2022-07-05T14:08:07;6.30;;;3.15;;
48100;SDS011;33878;47.442;18.916;2022-07-05T14:10:54;5.00;;;2.50;;
48100;SDS011;33878;47.442;18.916;2022-07-05T14:13:42;3.62;;;2.50;;
48100;SDS011;33878;47.442;18.916;2022-07-05T14:16:28;3.92;;;2.70;;
48100;SDS011;33878;47.442;18.916;2022-07-05T14:19:14;5.22;;;2.25;;
48100;SDS011;33878;47.442;18.916;2022-07-05T14:22:01;3.95;;;2.25;;
48100;SDS011;33878;47.442;18.916;2022-07-05T14:24:47;9.13;;;3.45;;
48100;SDS011;33878;47.442;18.916;2022-07-05T14:27:34;2.90;;;2.40;;
48100;SDS011;33878;47.442;18.916;2022-07-05T14:30:20;5.37;;;2.60;;
48100;SDS011;33878;47.442;18.916;2022-07-05T14:33:09;3.33;;;2.20;;
48100;SDS011;33878;47.442;18.916;2022-07-05T14:35:57;3.42;;;2.40;;
48100;SDS011;33878;47.442;18.916;2022-07-05T14:38:43;3.22;;;2.20;;
48100;SDS011;33878;47.442;18.916;2022-07-05T14:41:32;3.25;;;2.08;;
48100;SDS011;33878;47.442;18.916;2022-07-05T14:44:21;3.97;;;2.03;;
48100;SDS011;33878;47.442;18.916;2022-07-05T14:47:07;4.07;;;2.30;;
48100;SDS011;33878;47.442;18.916;2022-07-05T14:49:53;4.25;;;2.30;;
48100;SDS011;33878;47.442;18.916;2022-07-05T14:52:43;4.18;;;2.40;;
48100;SDS011;33878;47.442;18.916;2022-07-05T14:55:29;3.05;;;2.25;;
48100;SDS011;33878;47.442;18.916;2022-07-05T14:58:16;4.22;;;2.17;;
48100;SDS011;33878;47.442;18.916;2022-07-05T15:01:02;3.97;;;2.15;;
48100;SDS011;33878;47.442;18.916;2022-07-05T15:03:48;3.50;;;2.20;;
48100;SDS011;33878;47.442;18.916;2022-07-05T15:06:35;2.65;;;1.95;;
48100;SDS011;33878;47.442;18.916;2022-07-05T15:09:21;4.40;;;2.10;;
48100;SDS011;33878;47.442;18.916;2022-07-05T15:12:08;3.78;;;2.30;;
48100;SDS011;33878;47.442;18.916;2022-07-05T15:14:54;3.10;;;2.17;;
48100;SDS011;33878;47.442;18.916;2022-07-05T15:17:44;3.58;;;2.10;;
48100;SDS011;33878;47.442;18.916;2022-07-05T15:20:31;3.47;;;2.05;;
48100;SDS011;33878;47.442;18.916;2022-07-05T15:23:17;4.43;;;2.58;;
48100;SDS011;33878;47.442;18.916;2022-07-05T15:26:05;4.80;;;2.20;;
48100;SDS011;33878;47.442;18.916;2022-07-05T15:28:51;3.25;;;2.20;;
48100;SDS011;33878;47.442;18.916;2022-07-05T15:31:37;3.85;;;2.50;;
48100;SDS011;33878;47.442;18.916;2022-07-05T15:34:24;2.70;;;2.10;;
48100;SDS011;33878;47.442;18.916;2022-07-05T15:37:11;2.87;;;1.87;;
48100;SDS011;33878;47.442;18.916;2022-07-05T15:39:57;4.22;;;2.20;;
48100;SDS011;33878;47.442;18.916;2022-07-05T15:42:44;2.92;;;1.90;;
48100;SDS011;33878;47.442;18.916;2022-07-05T15:45:30;5.05;;;2.30;;
48100;SDS011;33878;47.442;18.916;2022-07-05T15:48:17;2.78;;;1.90;;
48100;SDS011;33878;47.442;18.916;2022-07-05T15:51:03;3.25;;;1.90;;
48100;SDS011;33878;47.442;18.916;2022-07-05T15:53:49;2.90;;;2.05;;
48100;SDS011;33878;47.442;18.916;2022-07-05T15:56:36;2.83;;;2.20;;
48100;SDS011;33878;47.442;18.916;2022-07-05T15:59:23;2.47;;;1.98;;
48100;SDS011;33878;47.442;18.916;2022-07-05T16:02:10;2.42;;;2.00;;
48100;SDS011;33878;47.442;18.916;2022-07-05T16:04:56;3.00;;;2.10;;
48100;SDS011;33878;47.442;18.916;2022-07-05T16:07:43;3.78;;;2.22;;
48100;SDS011;33878;47.442;18.916;2022-07-05T16:10:29;2.40;;;1.87;;
48100;SDS011;33878;47.442;18.916;2022-07-05T16:13:23;2.80;;;2.10;;
48100;SDS011;33878;47.442;18.916;2022-07-05T16:16:10;4.47;;;2.72;;
48100;SDS011;33878;47.442;18.916;2022-07-05T16:18:57;5.20;;;2.53;;
48100;SDS011;33878;47.442;18.916;2022-07-05T16:21:44;4.22;;;2.65;;
48100;SDS011;33878;47.442;18.916;2022-07-05T16:24:35;3.28;;;2.37;;
48100;SDS011;33878;47.442;18.916;2022-07-05T16:27:21;4.03;;;3.00;;
48100;SDS011;33878;47.442;18.916;2022-07-05T16:30:07;4.03;;;3.30;;
48100;SDS011;33878;47.442;18.916;2022-07-05T16:32:54;4.20;;;3.40;;
48100;SDS011;33878;47.442;18.916;2022-07-05T16:35:40;4.70;;;3.33;;
48100;SDS011;33878;47.442;18.916;2022-07-05T16:38:27;6.60;;;3.17;;
48100;SDS011;33878;47.442;18.916;2022-07-05T16:41:16;4.55;;;3.03;;
48100;SDS011;33878;47.442;18.916;2022-07-05T16:44:03;5.18;;;3.28;;
48100;SDS011;33878;47.442;18.916;2022-07-05T16:46:49;4.12;;;2.80;;
48100;SDS011;33878;47.442;18.916;2022-07-05T16:49:36;4.78;;;3.00;;